首页
METAR-TAF:

METAR-TAF

机场 :

林丁平德林国际机场

拿骚, 巴哈马

纬度: 25-03N, 经度: 077-28W, 海拔: 3米

当前天气观测

该预报发布于1小时和18分钟前的09:00 UTC
风速1节,风向多变
温度 23°C
湿度 94%
气压 1015 hPa
能见度10公里或以上
散云层高于1800英尺
多云层高于3000英尺
小阵雨

METAR: MYNN 150900Z VRB01KT 9999 -SHRA SCT018 BKN030 23/22 A2998

时间: 05:18 (10:18 UTC)

预报

该预报发布于5小时和18分钟前的05:00 UTC
预报有效从15日的 06点(UTC)到 16日的 06点(UTC)
风速6节,风向
能见度10公里或以上
散云层高于2000英尺
多云层高于22000英尺
阵雨
从 15日的 1200点(UTC)
风速6节,风向东转东南
能见度10公里或以上
少量云层高于2000英尺
多云层高于22000英尺

TAF: MYNN 150500Z 1506/1606 09006KT 9999 SHRA SCT020 BKN220 FM151200 11006KT 9999 FEW020 BKN220

超过4000个机场的气象观测和天气预报(METAR&TAF报告)。

可查询的气象台以黄色和红色小点在地图上表示。

将鼠标移到小点上方,可查看气象台名称。

然后点击查看天气观测和预报。

如需切换地图:点击带黑十字的绿色按钮放大地图;点击带横线的绿色按钮缩小地图;或者点击绿色箭头查看邻近地区的地图。


METAR-TAF: